sensor_id;sensor_type;location;lat;lon;timestamp;temperature;humidity
16999;DHT22;10211;49.476;11.010;2023-02-15T00:01:15;0.50;99.90
16999;DHT22;10211;49.476;11.010;2023-02-15T00:03:43;0.60;99.90
16999;DHT22;10211;49.476;11.010;2023-02-15T00:06:10;0.50;99.90
16999;DHT22;10211;49.476;11.010;2023-02-15T00:08:36;0.50;99.90
16999;DHT22;10211;49.476;11.010;2023-02-15T00:11:05;0.50;99.90
16999;DHT22;10211;49.476;11.010;2023-02-15T00:13:34;0.40;99.90
16999;DHT22;10211;49.476;11.010;2023-02-15T00:16:02;0.30;99.90
16999;DHT22;10211;49.476;11.010;2023-02-15T00:18:29;0.30;99.90
16999;DHT22;10211;49.476;11.010;2023-02-15T00:20:57;0.30;99.90
16999;DHT22;10211;49.476;11.010;2023-02-15T00:23:25;0.40;99.90
16999;DHT22;10211;49.476;11.010;2023-02-15T00:26:04;0.40;99.90
16999;DHT22;10211;49.476;11.010;2023-02-15T00:28:30;0.40;99.90
16999;DHT22;10211;49.476;11.010;2023-02-15T00:31:04;0.40;99.90
16999;DHT22;10211;49.476;11.010;2023-02-15T00:33:31;0.50;99.90
16999;DHT22;10211;49.476;11.010;2023-02-15T00:36:00;0.50;99.90
16999;DHT22;10211;49.476;11.010;2023-02-15T00:38:28;0.50;99.90
16999;DHT22;10211;49.476;11.010;2023-02-15T00:40:56;0.40;99.90
16999;DHT22;10211;49.476;11.010;2023-02-15T00:43:23;0.40;99.90
16999;DHT22;10211;49.476;11.010;2023-02-15T00:45:50;0.40;99.90
16999;DHT22;10211;49.476;11.010;2023-02-15T00:48:18;0.40;99.90
16999;DHT22;10211;49.476;11.010;2023-02-15T00:50:45;0.40;99.90
16999;DHT22;10211;49.476;11.010;2023-02-15T00:53:13;0.40;99.90
16999;DHT22;10211;49.476;11.010;2023-02-15T00:55:40;0.40;99.90
16999;DHT22;10211;49.476;11.010;2023-02-15T00:58:07;0.30;99.90
16999;DHT22;10211;49.476;11.010;2023-02-15T01:00:34;0.30;99.90
16999;DHT22;10211;49.476;11.010;2023-02-15T01:03:01;0.30;99.90
16999;DHT22;10211;49.476;11.010;2023-02-15T01:05:28;0.30;99.90
16999;DHT22;10211;49.476;11.010;2023-02-15T01:07:56;0.30;99.90
16999;DHT22;10211;49.476;11.010;2023-02-15T01:10:27;0.20;99.90
16999;DHT22;10211;49.476;11.010;2023-02-15T01:12:55;0.20;99.90
16999;DHT22;10211;49.476;11.010;2023-02-15T01:15:23;0.20;99.90
16999;DHT22;10211;49.476;11.010;2023-02-15T01:17:50;0.20;99.90
16999;DHT22;10211;49.476;11.010;2023-02-15T01:20:19;0.10;99.90
16999;DHT22;10211;49.476;11.010;2023-02-15T01:22:45;0.10;99.90
16999;DHT22;10211;49.476;11.010;2023-02-15T01:25:12;0.10;99.90
16999;DHT22;10211;49.476;11.010;2023-02-15T01:27:40;0.00;99.90
16999;DHT22;10211;49.476;11.010;2023-02-15T01:30:08;-0.10;99.90
16999;DHT22;10211;49.476;11.010;2023-02-15T01:32:34;-0.10;99.90
16999;DHT22;10211;49.476;11.010;2023-02-15T01:35:01;-0.10;99.90
16999;DHT22;10211;49.476;11.010;2023-02-15T01:37:30;-0.20;99.90
16999;DHT22;10211;49.476;11.010;2023-02-15T01:39:57;-0.20;99.90
16999;DHT22;10211;49.476;11.010;2023-02-15T01:42:26;-0.20;99.90
16999;DHT22;10211;49.476;11.010;2023-02-15T01:44:55;-0.20;99.90
16999;DHT22;10211;49.476;11.010;2023-02-15T01:47:30;-0.30;99.90
16999;DHT22;10211;49.476;11.010;2023-02-15T01:50:03;-0.30;99.90
16999;DHT22;10211;49.476;11.010;2023-02-15T01:52:34;-0.20;99.90
16999;DHT22;10211;49.476;11.010;2023-02-15T01:55:02;-0.20;99.90
16999;DHT22;10211;49.476;11.010;2023-02-15T01:57:32;-0.20;99.90
16999;DHT22;10211;49.476;11.010;2023-02-15T02:00:03;-0.20;99.90
16999;DHT22;10211;49.476;11.010;2023-02-15T02:02:30;-0.20;99.90
16999;DHT22;10211;49.476;11.010;2023-02-15T02:04:59;-0.30;99.90
16999;DHT22;10211;49.476;11.010;2023-02-15T02:07:31;-0.30;99.90
16999;DHT22;10211;49.476;11.010;2023-02-15T02:09:59;-0.30;99.90
16999;DHT22;10211;49.476;11.010;2023-02-15T02:12:28;-0.30;99.90
16999;DHT22;10211;49.476;11.010;2023-02-15T02:14:56;-0.30;99.90
16999;DHT22;10211;49.476;11.010;2023-02-15T02:17:34;-0.40;99.90
16999;DHT22;10211;49.476;11.010;2023-02-15T02:20:26;-0.40;99.90
16999;DHT22;10211;49.476;11.010;2023-02-15T02:23:12;-0.40;99.90
16999;DHT22;10211;49.476;11.010;2023-02-15T02:26:05;-0.40;99.90
16999;DHT22;10211;49.476;11.010;2023-02-15T02:29:22;-0.40;99.90
16999;DHT22;10211;49.476;11.010;2023-02-15T02:32:15;-0.30;99.90
16999;DHT22;10211;49.476;11.010;2023-02-15T02:34:56;-0.30;99.90
16999;DHT22;10211;49.476;11.010;2023-02-15T02:37:32;-0.30;99.90
16999;DHT22;10211;49.476;11.010;2023-02-15T02:40:05;-0.20;99.90
16999;DHT22;10211;49.476;11.010;2023-02-15T02:42:38;-0.30;99.90
16999;DHT22;10211;49.476;11.010;2023-02-15T02:45:08;-0.20;99.90
16999;DHT22;10211;49.476;11.010;2023-02-15T02:47:39;-0.20;99.90
16999;DHT22;10211;49.476;11.010;2023-02-15T02:50:12;-0.30;99.90
16999;DHT22;10211;49.476;11.010;2023-02-15T02:52:41;-0.30;99.90
16999;DHT22;10211;49.476;11.010;2023-02-15T02:55:13;-0.30;99.90
16999;DHT22;10211;49.476;11.010;2023-02-15T02:57:48;-0.40;99.90
16999;DHT22;10211;49.476;11.010;2023-02-15T03:00:21;-0.40;99.90
16999;DHT22;10211;49.476;11.010;2023-02-15T03:02:55;-0.50;99.90
16999;DHT22;10211;49.476;11.010;2023-02-15T03:05:27;-0.40;99.90
16999;DHT22;10211;49.476;11.010;2023-02-15T03:07:55;-0.40;99.90
16999;DHT22;10211;49.476;11.010;2023-02-15T03:10:24;-0.50;99.90
16999;DHT22;10211;49.476;11.010;2023-02-15T03:12:52;-0.40;99.90
16999;DHT22;10211;49.476;11.010;2023-02-15T03:15:21;-0.40;99.90
16999;DHT22;10211;49.476;11.010;2023-02-15T03:17:51;-0.40;99.90
16999;DHT22;10211;49.476;11.010;2023-02-15T03:20:23;-0.40;99.90
16999;DHT22;10211;49.476;11.010;2023-02-15T03:22:55;-0.40;99.90
16999;DHT22;10211;49.476;11.010;2023-02-15T03:25:25;-0.40;99.90
16999;DHT22;10211;49.476;11.010;2023-02-15T03:27:58;-0.40;99.90
16999;DHT22;10211;49.476;11.010;2023-02-15T03:30:28;-0.40;99.90
16999;DHT22;10211;49.476;11.010;2023-02-15T03:32:58;-0.40;99.90
16999;DHT22;10211;49.476;11.010;2023-02-15T03:35:33;-0.50;99.90
16999;DHT22;10211;49.476;11.010;2023-02-15T03:38:06;-0.50;99.90
16999;DHT22;10211;49.476;11.010;2023-02-15T03:40:37;-0.40;99.90
16999;DHT22;10211;49.476;11.010;2023-02-15T03:43:27;-0.40;99.90
16999;DHT22;10211;49.476;11.010;2023-02-15T03:46:00;-0.40;99.90
16999;DHT22;10211;49.476;11.010;2023-02-15T03:48:31;-0.40;99.90
16999;DHT22;10211;49.476;11.010;2023-02-15T03:51:02;-0.40;99.90
16999;DHT22;10211;49.476;11.010;2023-02-15T03:53:52;-0.40;99.90
16999;DHT22;10211;49.476;11.010;2023-02-15T03:56:24;-0.40;99.90
16999;DHT22;10211;49.476;11.010;2023-02-15T03:58:50;-0.40;99.90
16999;DHT22;10211;49.476;11.010;2023-02-15T04:01:39;-0.40;99.90
16999;DHT22;10211;49.476;11.010;2023-02-15T04:04:32;-0.40;99.90
16999;DHT22;10211;49.476;11.010;2023-02-15T04:07:00;-0.50;99.90
16999;DHT22;10211;49.476;11.010;2023-02-15T04:09:28;-0.50;99.90
16999;DHT22;10211;49.476;11.010;2023-02-15T04:12:12;-0.50;99.90
16999;DHT22;10211;49.476;11.010;2023-02-15T04:14:39;-0.50;99.90
16999;DHT22;10211;49.476;11.010;2023-02-15T04:17:23;-0.50;99.90
16999;DHT22;10211;49.476;11.010;2023-02-15T04:19:50;-0.50;99.90
16999;DHT22;10211;49.476;11.010;2023-02-15T04:22:34;-0.50;99.90
16999;DHT22;10211;49.476;11.010;2023-02-15T04:25:20;-0.50;99.90
16999;DHT22;10211;49.476;11.010;2023-02-15T04:27:48;-0.50;99.90
16999;DHT22;10211;49.476;11.010;2023-02-15T04:30:17;-0.50;99.90
16999;DHT22;10211;49.476;11.010;2023-02-15T04:32:45;-0.40;99.90
16999;DHT22;10211;49.476;11.010;2023-02-15T04:35:12;-0.40;99.90
16999;DHT22;10211;49.476;11.010;2023-02-15T04:37:39;-0.50;99.90
16999;DHT22;10211;49.476;11.010;2023-02-15T04:40:09;-0.50;99.90
16999;DHT22;10211;49.476;11.010;2023-02-15T04:42:37;-0.50;99.90
16999;DHT22;10211;49.476;11.010;2023-02-15T04:45:04;-0.60;99.90
16999;DHT22;10211;49.476;11.010;2023-02-15T04:47:32;-0.60;99.90
16999;DHT22;10211;49.476;11.010;2023-02-15T04:49:58;-0.60;99.90
16999;DHT22;10211;49.476;11.010;2023-02-15T04:52:25;-0.60;99.90
16999;DHT22;10211;49.476;11.010;2023-02-15T04:54:52;-0.60;99.90
16999;DHT22;10211;49.476;11.010;2023-02-15T04:57:20;-0.60;99.90
16999;DHT22;10211;49.476;11.010;2023-02-15T04:59:48;-0.70;99.90
16999;DHT22;10211;49.476;11.010;2023-02-15T05:02:15;-0.70;99.90
16999;DHT22;10211;49.476;11.010;2023-02-15T05:04:41;-0.70;99.90
16999;DHT22;10211;49.476;11.010;2023-02-15T05:07:08;-0.60;99.90
16999;DHT22;10211;49.476;11.010;2023-02-15T05:09:35;-0.70;99.90
16999;DHT22;10211;49.476;11.010;2023-02-15T05:12:02;-0.60;99.90
16999;DHT22;10211;49.476;11.010;2023-02-15T05:14:29;-0.70;99.90
16999;DHT22;10211;49.476;11.010;2023-02-15T05:16:57;-0.70;99.90
16999;DHT22;10211;49.476;11.010;2023-02-15T05:19:26;-0.70;99.90
16999;DHT22;10211;49.476;11.010;2023-02-15T05:21:53;-0.70;99.90
16999;DHT22;10211;49.476;11.010;2023-02-15T05:24:20;-0.70;99.90
16999;DHT22;10211;49.476;11.010;2023-02-15T05:27:05;-0.60;99.90
16999;DHT22;10211;49.476;11.010;2023-02-15T05:29:50;-0.60;99.90
16999;DHT22;10211;49.476;11.010;2023-02-15T05:32:18;-0.70;99.90
16999;DHT22;10211;49.476;11.010;2023-02-15T05:34:44;-0.60;99.90
16999;DHT22;10211;49.476;11.010;2023-02-15T05:37:11;-0.70;99.90
16999;DHT22;10211;49.476;11.010;2023-02-15T05:39:38;-0.70;99.90
16999;DHT22;10211;49.476;11.010;2023-02-15T05:42:04;-0.70;99.90
16999;DHT22;10211;49.476;11.010;2023-02-15T05:44:32;-0.70;99.90
16999;DHT22;10211;49.476;11.010;2023-02-15T05:46:58;-0.70;99.90
16999;DHT22;10211;49.476;11.010;2023-02-15T05:49:27;-0.80;99.90
16999;DHT22;10211;49.476;11.010;2023-02-15T05:51:54;-0.80;99.90
16999;DHT22;10211;49.476;11.010;2023-02-15T05:54:21;-0.80;99.90
16999;DHT22;10211;49.476;11.010;2023-02-15T05:56:47;-0.80;99.90
16999;DHT22;10211;49.476;11.010;2023-02-15T05:59:14;-0.80;99.90
16999;DHT22;10211;49.476;11.010;2023-02-15T06:01:41;-0.80;99.90
16999;DHT22;10211;49.476;11.010;2023-02-15T06:04:07;-0.80;99.90
16999;DHT22;10211;49.476;11.010;2023-02-15T06:06:36;-0.80;99.90
16999;DHT22;10211;49.476;11.010;2023-02-15T06:09:03;-0.80;99.90
16999;DHT22;10211;49.476;11.010;2023-02-15T06:11:29;-0.80;99.90
16999;DHT22;10211;49.476;11.010;2023-02-15T06:13:56;-0.80;99.90
16999;DHT22;10211;49.476;11.010;2023-02-15T06:16:23;-0.80;99.90
16999;DHT22;10211;49.476;11.010;2023-02-15T06:18:49;-0.80;99.90
16999;DHT22;10211;49.476;11.010;2023-02-15T06:21:16;-0.80;99.90
16999;DHT22;10211;49.476;11.010;2023-02-15T06:23:44;-0.80;99.90
16999;DHT22;10211;49.476;11.010;2023-02-15T06:26:11;-0.80;99.90
16999;DHT22;10211;49.476;11.010;2023-02-15T06:28:37;-0.80;99.90
16999;DHT22;10211;49.476;11.010;2023-02-15T06:31:06;-0.90;99.90
16999;DHT22;10211;49.476;11.010;2023-02-15T06:33:33;-0.90;99.90
16999;DHT22;10211;49.476;11.010;2023-02-15T06:36:00;-0.90;99.90
16999;DHT22;10211;49.476;11.010;2023-02-15T06:38:29;-0.90;99.90
16999;DHT22;10211;49.476;11.010;2023-02-15T06:40:57;-0.90;99.90
16999;DHT22;10211;49.476;11.010;2023-02-15T06:43:24;-1.00;99.90
16999;DHT22;10211;49.476;11.010;2023-02-15T06:45:50;-1.00;99.90
16999;DHT22;10211;49.476;11.010;2023-02-15T06:48:17;-1.00;99.90
16999;DHT22;10211;49.476;11.010;2023-02-15T06:50:44;-1.00;99.90
16999;DHT22;10211;49.476;11.010;2023-02-15T06:53:11;-1.00;99.90
16999;DHT22;10211;49.476;11.010;2023-02-15T06:55:37;-1.00;99.90
16999;DHT22;10211;49.476;11.010;2023-02-15T06:58:05;-1.00;99.90
16999;DHT22;10211;49.476;11.010;2023-02-15T07:00:32;-1.00;99.90
16999;DHT22;10211;49.476;11.010;2023-02-15T07:02:59;-1.00;99.90
16999;DHT22;10211;49.476;11.010;2023-02-15T07:05:27;-1.00;99.90
16999;DHT22;10211;49.476;11.010;2023-02-15T07:07:58;-1.00;99.90
16999;DHT22;10211;49.476;11.010;2023-02-15T07:10:25;-1.00;99.90
16999;DHT22;10211;49.476;11.010;2023-02-15T07:12:51;-1.00;99.90
16999;DHT22;10211;49.476;11.010;2023-02-15T07:15:19;-1.00;99.90
16999;DHT22;10211;49.476;11.010;2023-02-15T07:17:47;-1.00;99.90
16999;DHT22;10211;49.476;11.010;2023-02-15T07:20:16;-0.90;99.90
16999;DHT22;10211;49.476;11.010;2023-02-15T07:22:44;-1.00;99.90
16999;DHT22;10211;49.476;11.010;2023-02-15T07:25:12;-0.90;99.90
16999;DHT22;10211;49.476;11.010;2023-02-15T07:27:39;-0.90;99.90
16999;DHT22;10211;49.476;11.010;2023-02-15T07:30:09;-0.90;99.90
16999;DHT22;10211;49.476;11.010;2023-02-15T07:32:38;-0.90;99.90
16999;DHT22;10211;49.476;11.010;2023-02-15T07:35:26;-0.90;99.90
16999;DHT22;10211;49.476;11.010;2023-02-15T07:37:54;-0.80;99.90
16999;DHT22;10211;49.476;11.010;2023-02-15T07:40:21;-0.80;99.90
16999;DHT22;10211;49.476;11.010;2023-02-15T07:42:49;-0.80;99.90
16999;DHT22;10211;49.476;11.010;2023-02-15T07:45:18;-0.80;99.90
16999;DHT22;10211;49.476;11.010;2023-02-15T07:47:46;-0.70;99.90
16999;DHT22;10211;49.476;11.010;2023-02-15T07:50:13;-0.70;99.90
16999;DHT22;10211;49.476;11.010;2023-02-15T07:52:41;-0.70;99.90
16999;DHT22;10211;49.476;11.010;2023-02-15T07:55:08;-0.60;99.90
16999;DHT22;10211;49.476;11.010;2023-02-15T07:57:41;-0.50;99.90
16999;DHT22;10211;49.476;11.010;2023-02-15T08:00:11;-0.50;99.90
16999;DHT22;10211;49.476;11.010;2023-02-15T08:02:38;-0.50;99.90
16999;DHT22;10211;49.476;11.010;2023-02-15T08:05:07;-0.50;99.90
16999;DHT22;10211;49.476;11.010;2023-02-15T08:07:34;-0.60;99.90
16999;DHT22;10211;49.476;11.010;2023-02-15T08:10:00;-0.60;99.90
16999;DHT22;10211;49.476;11.010;2023-02-15T08:12:27;-0.50;99.90
16999;DHT22;10211;49.476;11.010;2023-02-15T08:14:56;-0.40;99.90
16999;DHT22;10211;49.476;11.010;2023-02-15T08:17:24;-0.30;99.90
16999;DHT22;10211;49.476;11.010;2023-02-15T08:19:50;-0.20;99.90
16999;DHT22;10211;49.476;11.010;2023-02-15T08:22:18;-0.20;99.90
16999;DHT22;10211;49.476;11.010;2023-02-15T08:24:46;-0.10;99.90
16999;DHT22;10211;49.476;11.010;2023-02-15T08:27:13;-0.20;99.90
16999;DHT22;10211;49.476;11.010;2023-02-15T08:29:39;-0.20;99.90
16999;DHT22;10211;49.476;11.010;2023-02-15T08:32:08;-0.20;99.90
16999;DHT22;10211;49.476;11.010;2023-02-15T08:34:39;-0.20;99.90
16999;DHT22;10211;49.476;11.010;2023-02-15T08:37:06;-0.20;99.90
16999;DHT22;10211;49.476;11.010;2023-02-15T08:39:34;-0.20;99.90
16999;DHT22;10211;49.476;11.010;2023-02-15T08:42:01;-0.10;99.90
16999;DHT22;10211;49.476;11.010;2023-02-15T08:44:28;0.00;99.90
16999;DHT22;10211;49.476;11.010;2023-02-15T08:46:55;0.20;99.90
16999;DHT22;10211;49.476;11.010;2023-02-15T08:49:23;0.30;99.90
16999;DHT22;10211;49.476;11.010;2023-02-15T08:51:50;0.30;99.90
16999;DHT22;10211;49.476;11.010;2023-02-15T08:54:18;0.40;99.90
16999;DHT22;10211;49.476;11.010;2023-02-15T08:56:48;0.40;99.90
16999;DHT22;10211;49.476;11.010;2023-02-15T08:59:17;0.50;99.90
16999;DHT22;10211;49.476;11.010;2023-02-15T09:01:44;0.60;99.90
16999;DHT22;10211;49.476;11.010;2023-02-15T09:04:12;0.70;99.90
16999;DHT22;10211;49.476;11.010;2023-02-15T09:06:41;0.80;99.90
16999;DHT22;10211;49.476;11.010;2023-02-15T09:09:10;0.80;99.90
16999;DHT22;10211;49.476;11.010;2023-02-15T09:11:38;0.90;99.90
16999;DHT22;10211;49.476;11.010;2023-02-15T09:14:08;0.90;99.90
16999;DHT22;10211;49.476;11.010;2023-02-15T09:16:37;1.00;99.90
16999;DHT22;10211;49.476;11.010;2023-02-15T09:19:04;1.10;99.90
16999;DHT22;10211;49.476;11.010;2023-02-15T09:21:32;1.10;99.90
16999;DHT22;10211;49.476;11.010;2023-02-15T09:24:01;1.00;99.90
16999;DHT22;10211;49.476;11.010;2023-02-15T09:26:30;1.10;99.90
16999;DHT22;10211;49.476;11.010;2023-02-15T09:28:59;1.20;99.90
16999;DHT22;10211;49.476;11.010;2023-02-15T09:31:29;1.30;99.90
16999;DHT22;10211;49.476;11.010;2023-02-15T09:33:58;1.30;99.90
16999;DHT22;10211;49.476;11.010;2023-02-15T09:36:28;1.30;99.90
16999;DHT22;10211;49.476;11.010;2023-02-15T09:38:57;1.40;99.90
16999;DHT22;10211;49.476;11.010;2023-02-15T09:41:40;1.50;99.90
16999;DHT22;10211;49.476;11.010;2023-02-15T09:44:19;1.60;99.90
16999;DHT22;10211;49.476;11.010;2023-02-15T09:47:22;1.60;99.90
16999;DHT22;10211;49.476;11.010;2023-02-15T09:49:54;1.80;99.90
16999;DHT22;10211;49.476;11.010;2023-02-15T09:52:39;1.90;99.90
16999;DHT22;10211;49.476;11.010;2023-02-15T09:55:22;2.10;99.90
16999;DHT22;10211;49.476;11.010;2023-02-15T09:57:55;2.30;99.90
16999;DHT22;10211;49.476;11.010;2023-02-15T10:00:28;2.40;99.90
16999;DHT22;10211;49.476;11.010;2023-02-15T10:03:19;2.50;99.90
16999;DHT22;10211;49.476;11.010;2023-02-15T10:05:58;2.50;99.90
16999;DHT22;10211;49.476;11.010;2023-02-15T10:09:00;2.50;99.90
16999;DHT22;10211;49.476;11.010;2023-02-15T10:11:40;2.40;99.90
16999;DHT22;10211;49.476;11.010;2023-02-15T10:14:20;2.40;99.90
16999;DHT22;10211;49.476;11.010;2023-02-15T10:16:59;2.50;99.90
16999;DHT22;10211;49.476;11.010;2023-02-15T10:19:34;2.60;99.90
16999;DHT22;10211;49.476;11.010;2023-02-15T10:22:12;2.80;99.90
16999;DHT22;10211;49.476;11.010;2023-02-15T10:24:49;2.90;99.90
16999;DHT22;10211;49.476;11.010;2023-02-15T10:27:22;3.00;99.90
16999;DHT22;10211;49.476;11.010;2023-02-15T10:29:57;3.10;99.90
16999;DHT22;10211;49.476;11.010;2023-02-15T10:32:29;3.30;99.90
16999;DHT22;10211;49.476;11.010;2023-02-15T10:35:07;3.70;99.90
16999;DHT22;10211;49.476;11.010;2023-02-15T10:37:52;4.00;99.90
16999;DHT22;10211;49.476;11.010;2023-02-15T10:40:28;4.20;99.90
16999;DHT22;10211;49.476;11.010;2023-02-15T10:43:12;4.30;99.90
16999;DHT22;10211;49.476;11.010;2023-02-15T10:45:49;4.10;99.90
16999;DHT22;10211;49.476;11.010;2023-02-15T10:48:27;4.20;99.90
16999;DHT22;10211;49.476;11.010;2023-02-15T10:51:01;4.80;99.90
16999;DHT22;10211;49.476;11.010;2023-02-15T10:53:55;5.40;99.90
16999;DHT22;10211;49.476;11.010;2023-02-15T10:56:34;5.90;99.90
16999;DHT22;10211;49.476;11.010;2023-02-15T10:59:25;6.50;99.90
16999;DHT22;10211;49.476;11.010;2023-02-15T11:02:01;8.00;99.90
16999;DHT22;10211;49.476;11.010;2023-02-15T11:04:43;9.10;99.90
16999;DHT22;10211;49.476;11.010;2023-02-15T11:07:16;9.60;99.90
16999;DHT22;10211;49.476;11.010;2023-02-15T11:09:47;11.10;95.00
16999;DHT22;10211;49.476;11.010;2023-02-15T11:12:17;11.70;90.80
16999;DHT22;10211;49.476;11.010;2023-02-15T11:14:47;11.50;89.10
16999;DHT22;10211;49.476;11.010;2023-02-15T11:17:19;12.30;89.70
16999;DHT22;10211;49.476;11.010;2023-02-15T11:19:54;13.40;81.60
16999;DHT22;10211;49.476;11.010;2023-02-15T11:22:23;13.10;80.20
16999;DHT22;10211;49.476;11.010;2023-02-15T11:24:51;12.30;80.10
16999;DHT22;10211;49.476;11.010;2023-02-15T11:27:22;11.00;81.50
16999;DHT22;10211;49.476;11.010;2023-02-15T11:29:55;10.00;84.70
16999;DHT22;10211;49.476;11.010;2023-02-15T11:32:27;9.20;87.00
16999;DHT22;10211;49.476;11.010;2023-02-15T11:34:58;8.40;89.60
16999;DHT22;10211;49.476;11.010;2023-02-15T11:37:33;7.70;91.00
16999;DHT22;10211;49.476;11.010;2023-02-15T11:40:02;7.00;92.10
16999;DHT22;10211;49.476;11.010;2023-02-15T11:42:30;6.70;93.30
16999;DHT22;10211;49.476;11.010;2023-02-15T11:45:02;6.40;94.40
16999;DHT22;10211;49.476;11.010;2023-02-15T11:47:30;6.20;94.80
16999;DHT22;10211;49.476;11.010;2023-02-15T11:49:57;6.00;95.70
16999;DHT22;10211;49.476;11.010;2023-02-15T11:52:24;5.90;96.40
16999;DHT22;10211;49.476;11.010;2023-02-15T11:54:52;5.80;97.10
16999;DHT22;10211;49.476;11.010;2023-02-15T11:57:23;5.70;97.50
16999;DHT22;10211;49.476;11.010;2023-02-15T11:59:56;5.60;97.60
16999;DHT22;10211;49.476;11.010;2023-02-15T12:02:24;5.40;98.20
16999;DHT22;10211;49.476;11.010;2023-02-15T12:04:54;5.10;99.00
16999;DHT22;10211;49.476;11.010;2023-02-15T12:07:25;5.00;99.90
16999;DHT22;10211;49.476;11.010;2023-02-15T12:09:59;5.00;99.90
16999;DHT22;10211;49.476;11.010;2023-02-15T12:12:31;5.00;99.90
16999;DHT22;10211;49.476;11.010;2023-02-15T12:14:59;5.10;99.90
16999;DHT22;10211;49.476;11.010;2023-02-15T12:17:28;5.40;99.90
16999;DHT22;10211;49.476;11.010;2023-02-15T12:19:57;5.60;99.90
16999;DHT22;10211;49.476;11.010;2023-02-15T12:22:27;6.00;99.90
16999;DHT22;10211;49.476;11.010;2023-02-15T12:24:58;6.60;99.90
16999;DHT22;10211;49.476;11.010;2023-02-15T12:27:27;7.20;99.90
16999;DHT22;10211;49.476;11.010;2023-02-15T12:29:58;7.70;99.50
16999;DHT22;10211;49.476;11.010;2023-02-15T12:32:26;8.10;98.00
16999;DHT22;10211;49.476;11.010;2023-02-15T12:34:59;8.30;97.30
16999;DHT22;10211;49.476;11.010;2023-02-15T12:37:28;8.40;96.30
16999;DHT22;10211;49.476;11.010;2023-02-15T12:39:59;8.70;95.90
16999;DHT22;10211;49.476;11.010;2023-02-15T12:42:28;9.00;95.20
16999;DHT22;10211;49.476;11.010;2023-02-15T12:45:25;9.30;94.50
16999;DHT22;10211;49.476;11.010;2023-02-15T12:48:15;9.70;94.30
16999;DHT22;10211;49.476;11.010;2023-02-15T12:50:43;10.00;92.80
16999;DHT22;10211;49.476;11.010;2023-02-15T12:53:14;9.70;92.70
16999;DHT22;10211;49.476;11.010;2023-02-15T12:55:53;9.30;92.90
16999;DHT22;10211;49.476;11.010;2023-02-15T12:58:22;8.70;93.40
16999;DHT22;10211;49.476;11.010;2023-02-15T13:01:04;8.30;93.90
16999;DHT22;10211;49.476;11.010;2023-02-15T13:03:38;8.20;94.30
16999;DHT22;10211;49.476;11.010;2023-02-15T13:06:06;8.40;94.50
16999;DHT22;10211;49.476;11.010;2023-02-15T13:08:35;9.00;94.80
16999;DHT22;10211;49.476;11.010;2023-02-15T13:11:08;9.90;92.60
16999;DHT22;10211;49.476;11.010;2023-02-15T13:13:50;10.20;91.80
16999;DHT22;10211;49.476;11.010;2023-02-15T13:16:21;10.80;91.10
16999;DHT22;10211;49.476;11.010;2023-02-15T13:18:51;11.10;90.70
16999;DHT22;10211;49.476;11.010;2023-02-15T13:21:21;11.40;89.50
16999;DHT22;10211;49.476;11.010;2023-02-15T13:23:52;11.50;88.70
16999;DHT22;10211;49.476;11.010;2023-02-15T13:26:23;11.90;88.20
16999;DHT22;10211;49.476;11.010;2023-02-15T13:28:54;12.50;86.50
16999;DHT22;10211;49.476;11.010;2023-02-15T13:31:24;12.80;82.80
16999;DHT22;10211;49.476;11.010;2023-02-15T13:33:55;12.80;83.00
16999;DHT22;10211;49.476;11.010;2023-02-15T13:36:27;12.70;81.70
16999;DHT22;10211;49.476;11.010;2023-02-15T13:39:07;12.60;81.40
16999;DHT22;10211;49.476;11.010;2023-02-15T13:41:50;12.30;82.50
16999;DHT22;10211;49.476;11.010;2023-02-15T13:44:28;12.60;82.20
16999;DHT22;10211;49.476;11.010;2023-02-15T13:47:06;12.50;80.80
16999;DHT22;10211;49.476;11.010;2023-02-15T13:49:46;12.00;82.10
16999;DHT22;10211;49.476;11.010;2023-02-15T13:52:19;11.60;83.00
16999;DHT22;10211;49.476;11.010;2023-02-15T13:55:00;11.50;83.70
16999;DHT22;10211;49.476;11.010;2023-02-15T13:57:47;11.90;83.30
16999;DHT22;10211;49.476;11.010;2023-02-15T14:00:22;12.30;81.70
16999;DHT22;10211;49.476;11.010;2023-02-15T14:03:10;12.50;82.20
16999;DHT22;10211;49.476;11.010;2023-02-15T14:06:03;12.10;81.00
16999;DHT22;10211;49.476;11.010;2023-02-15T14:08:42;11.50;82.40
16999;DHT22;10211;49.476;11.010;2023-02-15T14:11:18;11.20;84.00
16999;DHT22;10211;49.476;11.010;2023-02-15T14:16:58;11.20;84.10
16999;DHT22;10211;49.476;11.010;2023-02-15T14:19:34;11.10;83.90
16999;DHT22;10211;49.476;11.010;2023-02-15T14:22:07;11.00;84.50
16999;DHT22;10211;49.476;11.010;2023-02-15T14:24:40;11.00;85.20
16999;DHT22;10211;49.476;11.010;2023-02-15T14:27:15;11.00;85.40
16999;DHT22;10211;49.476;11.010;2023-02-15T14:29:49;10.70;85.70
16999;DHT22;10211;49.476;11.010;2023-02-15T14:32:25;10.10;86.50
16999;DHT22;10211;49.476;11.010;2023-02-15T14:34:55;9.80;87.40
16999;DHT22;10211;49.476;11.010;2023-02-15T14:37:31;9.60;88.50
16999;DHT22;10211;49.476;11.010;2023-02-15T14:40:08;9.20;89.30
16999;DHT22;10211;49.476;11.010;2023-02-15T14:42:58;8.80;90.10
16999;DHT22;10211;49.476;11.010;2023-02-15T14:45:30;8.30;90.80
16999;DHT22;10211;49.476;11.010;2023-02-15T14:48:05;8.00;91.60
16999;DHT22;10211;49.476;11.010;2023-02-15T14:50:39;7.70;92.40
16999;DHT22;10211;49.476;11.010;2023-02-15T14:53:20;7.50;92.70
16999;DHT22;10211;49.476;11.010;2023-02-15T14:59:13;7.10;93.40
16999;DHT22;10211;49.476;11.010;2023-02-15T15:01:40;7.00;93.80
16999;DHT22;10211;49.476;11.010;2023-02-15T15:04:12;6.90;94.20
16999;DHT22;10211;49.476;11.010;2023-02-15T15:06:41;6.80;94.60
16999;DHT22;10211;49.476;11.010;2023-02-15T15:09:11;6.70;95.10
16999;DHT22;10211;49.476;11.010;2023-02-15T15:11:42;6.70;95.10
16999;DHT22;10211;49.476;11.010;2023-02-15T15:14:10;6.60;95.30
16999;DHT22;10211;49.476;11.010;2023-02-15T15:16:48;6.60;95.60
16999;DHT22;10211;49.476;11.010;2023-02-15T15:22:42;6.50;96.20
16999;DHT22;10211;49.476;11.010;2023-02-15T15:25:12;6.30;96.50
16999;DHT22;10211;49.476;11.010;2023-02-15T15:28:00;6.20;97.00
16999;DHT22;10211;49.476;11.010;2023-02-15T15:30:50;6.10;97.20
16999;DHT22;10211;49.476;11.010;2023-02-15T15:42:32;5.70;99.10
16999;DHT22;10211;49.476;11.010;2023-02-15T15:45:31;5.60;99.60
16999;DHT22;10211;49.476;11.010;2023-02-15T15:48:19;5.60;99.90
16999;DHT22;10211;49.476;11.010;2023-02-15T15:50:52;5.40;99.90
16999;DHT22;10211;49.476;11.010;2023-02-15T15:53:21;5.40;99.90
16999;DHT22;10211;49.476;11.010;2023-02-15T15:55:52;5.30;99.90
16999;DHT22;10211;49.476;11.010;2023-02-15T15:58:21;5.20;99.90
16999;DHT22;10211;49.476;11.010;2023-02-15T16:00:51;5.10;99.90
16999;DHT22;10211;49.476;11.010;2023-02-15T16:03:21;5.00;99.90
16999;DHT22;10211;49.476;11.010;2023-02-15T16:05:48;4.90;99.90
16999;DHT22;10211;49.476;11.010;2023-02-15T16:08:27;4.80;99.90
16999;DHT22;10211;49.476;11.010;2023-02-15T16:10:55;4.70;99.90